Tuesday, September 25, 2018, 7:27 PM EDT
Back to Local

KIAD, Dulles International Airport

Location: Chantilly, VA, United States Lat: 38.933
Local Time: 7:27 PM EDT (23:27 GMT) Lon: -77.45
Time Zone: US/Eastern Elev: 311 ft

Show me the last for .
Show Decoded

2018-09-25 18:52 METAR KIAD 252252Z 00000KT 10SM SCT100 BKN150 BKN220 23/22 A3014 RMK AO2 SLP205
                 T02330222 =
2018-09-25 17:52 METAR KIAD 252152Z 20004KT 10SM FEW017 SCT100 BKN140 24/22 A3015 RMK AO2 SLP208
                 T02440222 =
2018-09-25 16:52 METAR KIAD 252052Z 00000KT 10SM SCT017 OVC100 24/22 A3016 RMK AO2 SLP210
                 T02440222 56011 =
2018-09-25 15:52 METAR KIAD 251952Z 22006KT 10SM BKN014 BKN030 BKN110 24/22 A3017 RMK AO2 SLP213
                 T02440222 =
2018-09-25 14:52 METAR KIAD 251852Z 23006KT 10SM BKN016 BKN025 OVC080 24/22 A3018 RMK AO2 SLP217
                 T02440222 =
2018-09-25 13:54 METAR KIAD 251754Z 23005KT 6SM BR BKN014 BKN022 OVC085 24/23 A3019 RMK AO2
                 T02440228 =
2018-09-25 13:52 METAR KIAD 251752Z 21005KT 6SM BR BKN014 BKN022 OVC060 24/23 A3019 RMK AO2
                 RAE1654B19E28 SLP222 P0000 60006 T02440228 10244 20194 58017 =
2018-09-25 12:56 METAR KIAD 251656Z 21004KT 6SM BR SCT009 BKN019 OVC033 23/23 A3021 RMK AO2 RAE54
                 P0000 T02330228 =
2018-09-25 12:54 METAR KIAD 251654Z 19005KT 10SM SCT009 BKN030 OVC035 23/23 A3021 RMK AO2 RAE54
                 P0000 T02330228 =
2018-09-25 12:52 METAR KIAD 251652Z 21005KT 6SM -RA BR BKN009 BKN030 OVC035 23/23 A3021 RMK AO2
                 RAB12E33B45 CIG 006V014 SLP229 P0000 T02330228 =
2018-09-25 12:41 METAR KIAD 251641Z 21004KT 6SM BR BKN007 BKN012 OVC033 23/22 A3022 RMK AO2
                 RAB12E33 P0000 T02280222 =
2018-09-25 12:21 METAR KIAD 251621Z 22006KT 4SM -RA BR BKN004 OVC012 22/22 A3023 RMK AO2 RAB12
                 CIG 002V009 P0000 T02220222 =
2018-09-25 11:52 METAR KIAD 251552Z 20005KT 1/4SM R01R/P6000FT BR OVC002 22/22 A3023 RMK AO2 SFC
                 VIS 3/4 SLP236 P0001 T02170217 =
2018-09-25 11:23 METAR KIAD 251523Z 21006KT 1/4SM R01R/4000VP6000FT BR OVC002 22/22 A3024 RMK AO2
                 SFC VIS 3/4 P0001 T02170217 =
2018-09-25 10:52 METAR KIAD 251452Z 21004KT 1/4SM R01R/3500V6000FT BR OVC002 21/21 A3024 RMK AO2
                 SFC VIS 1 RAE38 SLP240 P0004 60005 T02110211 56003 =
2018-09-25 10:11 METAR KIAD 251411Z 12003KT 2SM R01R/4000VP6000FT -RA BR OVC004 21/21 A3025 RMK
                 AO2 P0003 T02110211 =
2018-09-25 09:52 METAR KIAD 251352Z 13003KT 2SM -RA BR OVC005 21/21 A3025 RMK AO2 RAB47 SLP241
                 P0000 T02060206 =
2018-09-25 08:52 METAR KIAD 251252Z 00000KT 2SM R01R/2600VP6000FT BR OVC005 20/20 A3025 RMK AO2
                 RAE17 SLP241 P0001 T02000200 =
2018-09-25 08:15 METAR KIAD 251215Z 00000KT 2SM -RA BR OVC004 19/19 A3025 RMK AO2 P0001 T01940194
                 =
2018-09-25 07:52 METAR KIAD 251152Z 33003KT 2SM -RA BR OVC005 19/19 A3025 RMK AO2 SLP243 P0008
                 60043 70058 T01940194 10194 20183 53001 =
2018-09-25 07:14 METAR KIAD 251114Z 00000KT 2SM -RA BR OVC006 19/19 A3025 RMK AO2 P0008 T01940194
                 =
2018-09-25 06:59 METAR KIAD 251059Z 00000KT 2SM -RA BR BKN004 OVC014 19/19 A3025 RMK AO2 SFC VIS
                 2 1/2 CIG 003V008 P0001 T01940194 =
2018-09-25 06:52 METAR KIAD 251052Z 27005KT 2SM -RA BR SCT004 BKN014 OVC034 19/19 A3024 RMK AO2
                 SFC VIS 5 RAE32B45DZB32E45 SLP240 P0013 T01890189 =
2018-09-25 06:34 METAR KIAD 251034Z 05004KT 10SM -DZ SCT008 BKN014 OVC034 19/19 A3024 RMK AO2
                 RAE32DZB32 P0009 T01890189 =
2018-09-25 05:52 METAR KIAD 250952Z 06003KT 4SM -RA BR OVC005 19/19 A3024 RMK AO2
                 RAE07B47DZB07E47 SLP239 P0004 T01890189 =
2018-09-25 04:52 METAR KIAD 250852Z 29003KT 5SM -RA BR OVC006 19/19 A3025 RMK AO2 DZE50RAB50 CIG
                 004V009 SLP242 P0003 60018 T01890189 56013 =
2018-09-25 03:52 METAR KIAD 250752Z 12004KT 10SM -DZ BKN005 OVC011 19/18 A3025 RMK AO2 RAE49DZB49
                 SLP242 P0008 T01890183 =
2018-09-25 02:52 METAR KIAD 250652Z 13003KT 3SM -RA BR BKN007 OVC012 18/18 A3027 RMK AO2
                 DZE49RAB49 SLP250 P0007 T01830183 =
2018-09-25 01:52 METAR KIAD 250552Z VRB06KT 3SM -DZ BR BKN006 BKN013 OVC032 18/18 A3029 RMK AO2
                 RAE50DZB50 SLP256 P0003 60007 T01830183 10183 20172 58009 =
2018-09-25 00:52 METAR KIAD 250452Z 10009KT 5SM -RA BR BKN007 BKN011 OVC026 18/18 A3030 RMK AO2
                 DZE30RAB30 SLP259 P0003 T01780178 401830161 =
2018-09-24 23:52 METAR KIAD 250352Z 10009KT 10SM -DZ OVC007 18/17 A3032 RMK AO2 DZB0256 SLP265
                 P0000 T01780172 =
2018-09-24 22:52 METAR KIAD 250252Z 09009KT 7SM BR FEW003 BKN006 OVC013 18/17 A3032 RMK AO2
                 RAB22E39 SLP265 P0000 60001 T01780172 58002 =
2018-09-24 21:52 METAR KIAD 250152Z 09009KT 7SM BR FEW003 BKN008 OVC013 18/17 A3032 RMK AO2
                 RAB0057E07 SLP267 P0000 T01780172 =
2018-09-24 20:52 METAR KIAD 250052Z 10005KT 5SM BR BKN005 OVC014 17/17 A3033 RMK AO2 RAB31E41
                 SLP269 P0001 T01720172 =
2018-09-24 19:52 METAR KIAD 242352Z 10007KT 7SM FEW003 BKN007 OVC014 17/17 A3032 RMK AO2 RAB12E43
                 SLP267 P0001 60003 T01720172 10183 20172 52002 =

Support USWX by starting your Amazon purchase here.